BAW753 EBBR-EDDF
Flight info
| Callsign | BAW753 |
|---|---|
| Flight time | 0h 45m |
| Altitude | 23000 |
| Route | SPI4M SPI T180 NIVNU T847 IMCOM IMCOM1B |
| Aircraft | A319/M-SDE3FGHIRWY/LB1 |
Departure
| Time | 2026-04-14 08:47 |
|---|---|
| Airport | Brussels Airport (EBBR) |
Arrival
| Time | 2026-04-14 09:33 |
|---|---|
| Airport | Frankfurt Main Airport (EDDF) |
| Time | Latitude | Longitude | Altitude | Speed | Heading |
|---|---|---|---|---|---|
| 2026-04-14 08:09 | 50.90070 | 4.48740 | 128 ft | 0 kts | 155° |
| 2026-04-14 08:09 | 50.90069 | 4.48741 | 128 ft | 0 kts | 155° |
| 2026-04-14 08:36 | 50.90074 | 4.48737 | 131 ft | 2 kts | 155° |
| 2026-04-14 08:36 | 50.90092 | 4.48724 | 131 ft | 3 kts | 155° |
| 2026-04-14 08:36 | 50.90110 | 4.48710 | 127 ft | 3 kts | 150° |
| 2026-04-14 08:36 | 50.90127 | 4.48693 | 123 ft | 3 kts | 134° |
| 2026-04-14 08:37 | 50.90136 | 4.48672 | 122 ft | 3 kts | 85° |
| 2026-04-14 08:37 | 50.90136 | 4.48663 | 125 ft | 0 kts | 65° |
| 2026-04-14 08:41 | 50.90140 | 4.48677 | 124 ft | 3 kts | 65° |
| 2026-04-14 08:42 | 50.90153 | 4.48721 | 125 ft | 6 kts | 65° |
| 2026-04-14 08:42 | 50.90174 | 4.48796 | 125 ft | 9 kts | 65° |
| 2026-04-14 08:42 | 50.90206 | 4.48904 | 127 ft | 12 kts | 65° |
| 2026-04-14 08:42 | 50.90246 | 4.49044 | 125 ft | 16 kts | 65° |
| 2026-04-14 08:43 | 50.90293 | 4.49209 | 126 ft | 16 kts | 65° |
| 2026-04-14 08:43 | 50.90340 | 4.49371 | 122 ft | 16 kts | 65° |
| 2026-04-14 08:43 | 50.90432 | 4.49468 | 124 ft | 17 kts | 12° |
| 2026-04-14 08:43 | 50.90554 | 4.49517 | 124 ft | 20 kts | 14° |
| 2026-04-14 08:44 | 50.90668 | 4.49563 | 120 ft | 16 kts | 14° |
| 2026-04-14 08:44 | 50.90766 | 4.49603 | 124 ft | 14 kts | 14° |
| 2026-04-14 08:44 | 50.90853 | 4.49638 | 124 ft | 14 kts | 14° |
| 2026-04-14 08:44 | 50.90934 | 4.49668 | 123 ft | 12 kts | 7° |
| 2026-04-14 08:45 | 50.90980 | 4.49568 | 121 ft | 16 kts | 273° |
| 2026-04-14 08:45 | 50.90988 | 4.49398 | 120 ft | 15 kts | 274° |
| 2026-04-14 08:45 | 50.90967 | 4.49291 | 117 ft | 0 kts | 245° |
| 2026-04-14 08:46 | 50.90957 | 4.49255 | 120 ft | 17 kts | 245° |
| 2026-04-14 08:47 | 50.90808 | 4.48740 | 120 ft | 83 kts | 245° |
| 2026-04-14 08:47 | 50.90488 | 4.47632 | 124 ft | 140 kts | 245° |
| 2026-04-14 08:47 | 50.90044 | 4.46102 | 589 ft | 153 kts | 245° |
| 2026-04-14 08:47 | 50.89603 | 4.44567 | 1304 ft | 157 kts | 245° |
| 2026-04-14 08:48 | 50.89122 | 4.42890 | 1784 ft | 178 kts | 244° |
| 2026-04-14 08:48 | 50.88395 | 4.41144 | 2219 ft | 204 kts | 228° |
| 2026-04-14 08:48 | 50.87223 | 4.39609 | 2816 ft | 230 kts | 211° |
| 2026-04-14 08:48 | 50.85651 | 4.38673 | 3533 ft | 253 kts | 191° |
| 2026-04-14 08:49 | 50.83861 | 4.38679 | 4597 ft | 262 kts | 170° |
| 2026-04-14 08:49 | 50.82150 | 4.39725 | 5735 ft | 268 kts | 149° |
| 2026-04-14 08:49 | 50.80763 | 4.41732 | 6700 ft | 276 kts | 128° |
| 2026-04-14 08:49 | 50.79945 | 4.44479 | 7046 ft | 279 kts | 103° |
| 2026-04-14 08:50 | 50.79817 | 4.47524 | 7753 ft | 283 kts | 91° |
| 2026-04-14 08:50 | 50.79760 | 4.50643 | 8796 ft | 286 kts | 92° |
| 2026-04-14 08:50 | 50.79662 | 4.53844 | 9815 ft | 291 kts | 92° |
| 2026-04-14 08:50 | 50.79548 | 4.57039 | 10554 ft | 304 kts | 92° |
| 2026-04-14 08:51 | 50.79423 | 4.60532 | 11037 ft | 323 kts | 92° |
| 2026-04-14 08:51 | 50.79299 | 4.64074 | 11785 ft | 331 kts | 92° |
| 2026-04-14 08:51 | 50.79168 | 4.67733 | 12598 ft | 337 kts | 93° |
| 2026-04-14 08:51 | 50.78687 | 4.71387 | 13379 ft | 344 kts | 106° |
| 2026-04-14 08:52 | 50.77972 | 4.75022 | 14168 ft | 349 kts | 106° |
| 2026-04-14 08:52 | 50.77090 | 4.78610 | 14917 ft | 353 kts | 115° |
| 2026-04-14 08:52 | 50.76030 | 4.82132 | 15682 ft | 357 kts | 115° |
| 2026-04-14 08:52 | 50.74955 | 4.85686 | 16440 ft | 360 kts | 115° |
| 2026-04-14 08:53 | 50.73867 | 4.89271 | 17186 ft | 364 kts | 115° |
| 2026-04-14 08:53 | 50.72767 | 4.92895 | 17933 ft | 368 kts | 116° |
| 2026-04-14 08:53 | 50.71655 | 4.96555 | 18659 ft | 371 kts | 116° |
| 2026-04-14 08:53 | 50.70537 | 5.00246 | 19304 ft | 375 kts | 116° |
| 2026-04-14 08:54 | 50.69406 | 5.03981 | 19956 ft | 379 kts | 116° |
| 2026-04-14 08:54 | 50.68262 | 5.07752 | 20586 ft | 383 kts | 116° |
| 2026-04-14 08:54 | 50.67108 | 5.11551 | 21220 ft | 387 kts | 116° |
| 2026-04-14 08:54 | 50.65937 | 5.15392 | 21850 ft | 390 kts | 116° |
| 2026-04-14 08:55 | 50.64752 | 5.19263 | 22478 ft | 394 kts | 116° |
| 2026-04-14 08:55 | 50.63556 | 5.23170 | 23038 ft | 398 kts | 116° |
| 2026-04-14 08:55 | 50.62357 | 5.27092 | 23174 ft | 396 kts | 116° |
| 2026-04-14 08:55 | 50.61183 | 5.30926 | 23198 ft | 381 kts | 116° |
| 2026-04-14 08:56 | 50.60054 | 5.34613 | 23198 ft | 368 kts | 116° |
| 2026-04-14 08:56 | 50.58948 | 5.38213 | 23198 ft | 363 kts | 116° |
| 2026-04-14 08:56 | 50.57846 | 5.41776 | 23199 ft | 362 kts | 116° |
| 2026-04-14 08:56 | 50.56746 | 5.45330 | 23198 ft | 361 kts | 116° |
| 2026-04-14 08:57 | 50.55646 | 5.48883 | 23194 ft | 361 kts | 116° |
| 2026-04-14 08:57 | 50.54544 | 5.52430 | 23195 ft | 361 kts | 116° |
| 2026-04-14 08:57 | 50.53442 | 5.55982 | 23195 ft | 361 kts | 116° |
| 2026-04-14 08:57 | 50.52341 | 5.59530 | 23195 ft | 361 kts | 116° |
| 2026-04-14 08:58 | 50.51333 | 5.63129 | 23195 ft | 360 kts | 109° |
| 2026-04-14 08:58 | 50.50635 | 5.66851 | 23188 ft | 360 kts | 105° |
| 2026-04-14 08:58 | 50.49944 | 5.70617 | 23188 ft | 359 kts | 106° |
| 2026-04-14 08:58 | 50.49245 | 5.74385 | 23188 ft | 359 kts | 106° |
| 2026-04-14 08:59 | 50.48538 | 5.78150 | 23185 ft | 359 kts | 106° |
| 2026-04-14 08:59 | 50.47830 | 5.81906 | 23184 ft | 359 kts | 106° |
| 2026-04-14 08:59 | 50.47122 | 5.85666 | 23183 ft | 359 kts | 106° |
| 2026-04-14 08:59 | 50.46414 | 5.89421 | 23183 ft | 359 kts | 106° |
| 2026-04-14 09:00 | 50.45705 | 5.93170 | 23184 ft | 359 kts | 106° |
| 2026-04-14 09:00 | 50.44994 | 5.96920 | 23172 ft | 359 kts | 106° |
| 2026-04-14 09:00 | 50.44282 | 6.00670 | 23173 ft | 359 kts | 106° |
| 2026-04-14 09:00 | 50.43572 | 6.04420 | 23176 ft | 358 kts | 107° |
| 2026-04-14 09:01 | 50.42864 | 6.08159 | 23182 ft | 358 kts | 107° |
| 2026-04-14 09:01 | 50.42152 | 6.11905 | 23170 ft | 358 kts | 107° |
| 2026-04-14 09:01 | 50.41438 | 6.15639 | 23171 ft | 357 kts | 107° |
| 2026-04-14 09:01 | 50.40724 | 6.19362 | 23170 ft | 357 kts | 107° |
| 2026-04-14 09:02 | 50.40009 | 6.23088 | 23169 ft | 357 kts | 107° |
| 2026-04-14 09:02 | 50.39292 | 6.26812 | 23168 ft | 357 kts | 107° |
| 2026-04-14 09:02 | 50.38574 | 6.30537 | 23165 ft | 357 kts | 107° |
| 2026-04-14 09:02 | 50.37859 | 6.34253 | 23164 ft | 357 kts | 107° |
| 2026-04-14 09:03 | 50.37143 | 6.37977 | 23161 ft | 357 kts | 107° |
| 2026-04-14 09:03 | 50.36477 | 6.41719 | 23161 ft | 357 kts | 101° |
| 2026-04-14 09:03 | 50.36165 | 6.45565 | 23160 ft | 356 kts | 95° |
| 2026-04-14 09:03 | 50.35937 | 6.49429 | 23167 ft | 356 kts | 95° |
| 2026-04-14 09:04 | 50.35702 | 6.53298 | 23173 ft | 356 kts | 95° |
| 2026-04-14 09:04 | 50.35461 | 6.57157 | 23174 ft | 356 kts | 96° |
| 2026-04-14 09:04 | 50.35215 | 6.61015 | 23173 ft | 356 kts | 96° |
| 2026-04-14 09:04 | 50.34965 | 6.64863 | 23172 ft | 356 kts | 96° |
| 2026-04-14 09:05 | 50.34712 | 6.68719 | 23174 ft | 356 kts | 96° |
| 2026-04-14 09:05 | 50.34464 | 6.72567 | 23173 ft | 356 kts | 96° |
| 2026-04-14 09:05 | 50.34215 | 6.76423 | 23172 ft | 356 kts | 96° |
| 2026-04-14 09:05 | 50.33972 | 6.80278 | 23171 ft | 356 kts | 96° |
| 2026-04-14 09:06 | 50.33707 | 6.84122 | 23169 ft | 356 kts | 99° |
| 2026-04-14 09:06 | 50.33082 | 6.87862 | 23168 ft | 355 kts | 111° |
| 2026-04-14 09:06 | 50.32076 | 6.91384 | 23126 ft | 357 kts | 116° |
| 2026-04-14 09:06 | 50.31014 | 6.94903 | 22760 ft | 356 kts | 116° |
| 2026-04-14 09:07 | 50.29965 | 6.98396 | 22344 ft | 353 kts | 116° |
| 2026-04-14 09:07 | 50.28929 | 7.01866 | 21913 ft | 352 kts | 115° |
| 2026-04-14 09:07 | 50.27900 | 7.05330 | 21445 ft | 351 kts | 115° |
| 2026-04-14 09:07 | 50.26869 | 7.08792 | 20991 ft | 350 kts | 115° |
| 2026-04-14 09:08 | 50.25840 | 7.12238 | 20526 ft | 349 kts | 115° |
| 2026-04-14 09:08 | 50.24813 | 7.15669 | 20072 ft | 348 kts | 115° |
| 2026-04-14 09:08 | 50.23789 | 7.19086 | 19621 ft | 347 kts | 115° |
| 2026-04-14 09:08 | 50.22766 | 7.22490 | 19174 ft | 346 kts | 115° |
| 2026-04-14 09:09 | 50.21745 | 7.25878 | 18718 ft | 345 kts | 115° |
| 2026-04-14 09:09 | 50.20725 | 7.29259 | 18248 ft | 344 kts | 115° |
| 2026-04-14 09:09 | 50.19709 | 7.32638 | 17782 ft | 342 kts | 114° |
| 2026-04-14 09:09 | 50.18783 | 7.36033 | 17335 ft | 339 kts | 112° |
| 2026-04-14 09:10 | 50.17947 | 7.39466 | 16896 ft | 337 kts | 112° |
| 2026-04-14 09:10 | 50.17161 | 7.42887 | 16463 ft | 334 kts | 110° |
| 2026-04-14 09:10 | 50.16391 | 7.46289 | 16049 ft | 332 kts | 111° |
| 2026-04-14 09:10 | 50.15615 | 7.49666 | 15610 ft | 330 kts | 112° |
| 2026-04-14 09:11 | 50.14829 | 7.53018 | 15178 ft | 328 kts | 112° |
| 2026-04-14 09:11 | 50.14037 | 7.56348 | 14751 ft | 327 kts | 112° |
| 2026-04-14 09:11 | 50.13244 | 7.59652 | 14327 ft | 325 kts | 113° |
| 2026-04-14 09:11 | 50.12453 | 7.62943 | 13893 ft | 324 kts | 113° |
| 2026-04-14 09:12 | 50.11666 | 7.66225 | 13432 ft | 322 kts | 113° |
| 2026-04-14 09:12 | 50.10719 | 7.69337 | 13051 ft | 315 kts | 125° |
| 2026-04-14 09:12 | 50.09492 | 7.72079 | 12974 ft | 306 kts | 127° |
| 2026-04-14 09:12 | 50.08277 | 7.74795 | 12902 ft | 305 kts | 127° |
| 2026-04-14 09:13 | 50.07074 | 7.77505 | 12806 ft | 304 kts | 127° |
| 2026-04-14 09:13 | 50.05875 | 7.80213 | 12697 ft | 304 kts | 127° |
| 2026-04-14 09:13 | 50.04676 | 7.82921 | 12588 ft | 304 kts | 126° |
| 2026-04-14 09:13 | 50.03480 | 7.85615 | 12480 ft | 299 kts | 127° |
| 2026-04-14 09:14 | 50.02314 | 7.88235 | 12343 ft | 290 kts | 127° |
| 2026-04-14 09:14 | 50.01182 | 7.90769 | 12217 ft | 281 kts | 127° |
| 2026-04-14 09:14 | 50.00082 | 7.93230 | 12095 ft | 273 kts | 127° |
| 2026-04-14 09:14 | 49.98994 | 7.95564 | 12097 ft | 262 kts | 134° |
| 2026-04-14 09:15 | 49.97608 | 7.97332 | 12101 ft | 256 kts | 155° |
| 2026-04-14 09:15 | 49.95939 | 7.98114 | 11939 ft | 249 kts | 179° |
| 2026-04-14 09:15 | 49.94805 | 7.97983 | 11779 ft | 246 kts | 196° |
| 2026-04-14 09:15 | 49.92836 | 7.96262 | 11529 ft | 243 kts | 227° |
| 2026-04-14 09:16 | 49.91937 | 7.94071 | 11341 ft | 242 kts | 250° |
| 2026-04-14 09:16 | 49.91675 | 7.91507 | 11126 ft | 242 kts | 273° |
| 2026-04-14 09:16 | 49.91985 | 7.88905 | 10594 ft | 253 kts | 281° |
| 2026-04-14 09:16 | 49.92285 | 7.86119 | 9842 ft | 270 kts | 278° |
| 2026-04-14 09:17 | 49.92556 | 7.83191 | 9289 ft | 276 kts | 278° |
| 2026-04-14 09:17 | 49.92808 | 7.80247 | 8895 ft | 275 kts | 278° |
| 2026-04-14 09:17 | 49.92965 | 7.78307 | 8652 ft | 273 kts | 278° |
| 2026-04-14 09:17 | 49.93196 | 7.75374 | 8253 ft | 273 kts | 277° |
| 2026-04-14 09:18 | 49.93413 | 7.72446 | 7866 ft | 273 kts | 278° |
| 2026-04-14 09:18 | 49.93603 | 7.69512 | 7502 ft | 273 kts | 277° |
| 2026-04-14 09:18 | 49.93637 | 7.66581 | 7244 ft | 273 kts | 262° |
| 2026-04-14 09:18 | 49.92991 | 7.63764 | 6726 ft | 286 kts | 238° |
| 2026-04-14 09:19 | 49.91560 | 7.61636 | 6399 ft | 286 kts | 211° |
| 2026-04-14 09:19 | 49.89705 | 7.60662 | 6103 ft | 281 kts | 185° |
| 2026-04-14 09:19 | 49.87799 | 7.60993 | 5795 ft | 275 kts | 159° |
| 2026-04-14 09:19 | 49.86198 | 7.62491 | 5545 ft | 266 kts | 133° |
| 2026-04-14 09:20 | 49.85160 | 7.64764 | 5376 ft | 254 kts | 110° |
| 2026-04-14 09:20 | 49.84786 | 7.67355 | 5205 ft | 241 kts | 88° |
| 2026-04-14 09:20 | 49.84966 | 7.69901 | 5059 ft | 238 kts | 78° |
| 2026-04-14 09:20 | 49.85216 | 7.72435 | 4913 ft | 238 kts | 78° |
| 2026-04-14 09:21 | 49.85461 | 7.74979 | 4746 ft | 239 kts | 78° |
| 2026-04-14 09:21 | 49.85699 | 7.77527 | 4583 ft | 238 kts | 79° |
| 2026-04-14 09:21 | 49.85938 | 7.80071 | 4434 ft | 238 kts | 79° |
| 2026-04-14 09:21 | 49.86178 | 7.82597 | 4276 ft | 237 kts | 79° |
| 2026-04-14 09:22 | 49.86424 | 7.85159 | 4132 ft | 246 kts | 79° |
| 2026-04-14 09:22 | 49.86789 | 7.87813 | 4014 ft | 253 kts | 69° |
| 2026-04-14 09:22 | 49.87417 | 7.90349 | 4005 ft | 253 kts | 66° |
| 2026-04-14 09:22 | 49.88041 | 7.92871 | 4005 ft | 253 kts | 67° |
| 2026-04-14 09:23 | 49.88674 | 7.95457 | 4007 ft | 253 kts | 67° |
| 2026-04-14 09:23 | 49.89299 | 7.98008 | 4003 ft | 253 kts | 67° |
| 2026-04-14 09:23 | 49.89910 | 8.00517 | 4001 ft | 242 kts | 67° |
| 2026-04-14 09:23 | 49.90487 | 8.02892 | 4003 ft | 228 kts | 67° |
| 2026-04-14 09:24 | 49.90986 | 8.04937 | 3999 ft | 214 kts | 66° |
| 2026-04-14 09:24 | 49.91492 | 8.07015 | 3995 ft | 198 kts | 66° |
| 2026-04-14 09:24 | 49.91961 | 8.08926 | 3997 ft | 183 kts | 66° |
| 2026-04-14 09:24 | 49.92410 | 8.10747 | 3998 ft | 179 kts | 66° |
| 2026-04-14 09:25 | 49.92841 | 8.12490 | 4034 ft | 163 kts | 65° |
| 2026-04-14 09:25 | 49.93227 | 8.14060 | 3999 ft | 148 kts | 65° |
| 2026-04-14 09:25 | 49.93581 | 8.15503 | 3996 ft | 140 kts | 65° |
| 2026-04-14 09:25 | 49.93924 | 8.16906 | 3998 ft | 138 kts | 65° |
| 2026-04-14 09:26 | 49.94261 | 8.18287 | 3999 ft | 136 kts | 65° |
| 2026-04-14 09:26 | 49.94597 | 8.19662 | 3999 ft | 136 kts | 65° |
| 2026-04-14 09:26 | 49.94932 | 8.21039 | 4015 ft | 136 kts | 65° |
| 2026-04-14 09:26 | 49.95260 | 8.22389 | 4013 ft | 130 kts | 65° |
| 2026-04-14 09:27 | 49.95570 | 8.23665 | 4003 ft | 124 kts | 64° |
| 2026-04-14 09:27 | 49.95876 | 8.24923 | 4003 ft | 124 kts | 64° |
| 2026-04-14 09:27 | 49.96180 | 8.26175 | 3971 ft | 125 kts | 64° |
| 2026-04-14 09:27 | 49.96484 | 8.27427 | 3866 ft | 123 kts | 64° |
| 2026-04-14 09:28 | 49.96786 | 8.28672 | 3726 ft | 122 kts | 65° |
| 2026-04-14 09:28 | 49.97085 | 8.29905 | 3575 ft | 122 kts | 64° |
| 2026-04-14 09:28 | 49.97383 | 8.31134 | 3412 ft | 121 kts | 64° |
| 2026-04-14 09:28 | 49.97680 | 8.32361 | 3245 ft | 121 kts | 64° |
| 2026-04-14 09:29 | 49.97977 | 8.33588 | 3081 ft | 122 kts | 65° |
| 2026-04-14 09:29 | 49.98278 | 8.34830 | 2912 ft | 123 kts | 65° |
| 2026-04-14 09:29 | 49.98580 | 8.36080 | 2740 ft | 124 kts | 65° |
| 2026-04-14 09:29 | 49.98887 | 8.37353 | 2566 ft | 124 kts | 65° |
| 2026-04-14 09:30 | 49.99193 | 8.38620 | 2394 ft | 126 kts | 66° |
| 2026-04-14 09:30 | 49.99499 | 8.39887 | 2219 ft | 125 kts | 66° |
| 2026-04-14 09:30 | 49.99805 | 8.41155 | 2043 ft | 125 kts | 65° |
| 2026-04-14 09:30 | 50.00109 | 8.42418 | 1876 ft | 125 kts | 66° |
| 2026-04-14 09:31 | 50.00414 | 8.43682 | 1707 ft | 124 kts | 65° |
| 2026-04-14 09:31 | 50.00717 | 8.44941 | 1544 ft | 124 kts | 67° |
| 2026-04-14 09:31 | 50.01021 | 8.46204 | 1369 ft | 124 kts | 65° |
| 2026-04-14 09:31 | 50.01323 | 8.47463 | 1192 ft | 124 kts | 66° |
| 2026-04-14 09:32 | 50.01623 | 8.48712 | 1026 ft | 122 kts | 65° |
| 2026-04-14 09:32 | 50.01922 | 8.49956 | 858 ft | 123 kts | 66° |
| 2026-04-14 09:32 | 50.02508 | 8.52396 | 525 ft | 119 kts | 68° |
| 2026-04-14 09:33 | 50.02799 | 8.53597 | 369 ft | 117 kts | 67° |
| 2026-04-14 09:33 | 50.03062 | 8.54737 | 336 ft | 99 kts | 68° |
| 2026-04-14 09:33 | 50.03250 | 8.55491 | 347 ft | 47 kts | 70° |
| 2026-04-14 09:33 | 50.03353 | 8.55741 | 347 ft | 25 kts | 45° |
| 2026-04-14 09:34 | 50.03450 | 8.55875 | 348 ft | 14 kts | 39° |
| 2026-04-14 09:34 | 50.03513 | 8.55956 | 347 ft | 5 kts | 39° |
| 2026-04-14 09:34 | 50.03516 | 8.55960 | 347 ft | 0 kts | 39° |
| 2026-04-14 09:35 | 50.03542 | 8.55995 | 354 ft | 9 kts | 40° |
| 2026-04-14 09:35 | 50.03613 | 8.56088 | 351 ft | 17 kts | 41° |
| 2026-04-14 09:35 | 50.03676 | 8.56241 | 354 ft | 19 kts | 69° |
| 2026-04-14 09:35 | 50.03729 | 8.56463 | 358 ft | 25 kts | 70° |
| 2026-04-14 09:36 | 50.03779 | 8.56674 | 353 ft | 21 kts | 69° |
| 2026-04-14 09:36 | 50.03830 | 8.56886 | 359 ft | 21 kts | 69° |
| 2026-04-14 09:36 | 50.03879 | 8.57096 | 359 ft | 20 kts | 69° |
| 2026-04-14 09:36 | 50.03925 | 8.57288 | 364 ft | 18 kts | 70° |
| 2026-04-14 09:37 | 50.03967 | 8.57464 | 369 ft | 17 kts | 70° |
| 2026-04-14 09:37 | 50.04008 | 8.57635 | 366 ft | 17 kts | 70° |
| 2026-04-14 09:37 | 50.04050 | 8.57809 | 367 ft | 17 kts | 69° |
| 2026-04-14 09:37 | 50.04092 | 8.57988 | 368 ft | 18 kts | 69° |
| 2026-04-14 09:38 | 50.04136 | 8.58169 | 368 ft | 18 kts | 70° |
| 2026-04-14 09:38 | 50.04182 | 8.58356 | 369 ft | 19 kts | 70° |
| 2026-04-14 09:38 | 50.04227 | 8.58549 | 372 ft | 19 kts | 70° |
| 2026-04-14 09:38 | 50.04276 | 8.58746 | 371 ft | 19 kts | 69° |
| 2026-04-14 09:39 | 50.04320 | 8.58931 | 375 ft | 18 kts | 70° |
| 2026-04-14 09:39 | 50.04361 | 8.59104 | 377 ft | 17 kts | 69° |
| 2026-04-14 09:39 | 50.04404 | 8.59282 | 376 ft | 15 kts | 70° |
| 2026-04-14 09:39 | 50.04437 | 8.59421 | 376 ft | 10 kts | 70° |
| 2026-04-14 09:40 | 50.04442 | 8.59441 | 376 ft | 0 kts | 70° |
| 2026-04-14 09:40 | 50.04443 | 8.59441 | 376 ft | 0 kts | 55° |
| 2026-04-14 09:40 | 50.04456 | 8.59453 | 375 ft | 5 kts | 26° |
| 2026-04-14 09:40 | 50.04499 | 8.59463 | 375 ft | 7 kts | 2° |
| 2026-04-14 09:41 | 50.04557 | 8.59462 | 374 ft | 10 kts | 359° |
| 2026-04-14 09:41 | 50.04637 | 8.59454 | 373 ft | 13 kts | 354° |
| 2026-04-14 09:41 | 50.04732 | 8.59423 | 372 ft | 15 kts | 342° |
| 2026-04-14 09:41 | 50.04831 | 8.59368 | 370 ft | 16 kts | 343° |
| 2026-04-14 09:42 | 50.04933 | 8.59370 | 367 ft | 15 kts | 353° |
| 2026-04-14 09:42 | 50.05021 | 8.59323 | 366 ft | 15 kts | 340° |
| 2026-04-14 09:42 | 50.05080 | 8.59242 | 363 ft | 12 kts | 282° |
| 2026-04-14 09:42 | 50.05064 | 8.59144 | 361 ft | 7 kts | 249° |
| 2026-04-14 09:43 | 50.05051 | 8.59122 | 361 ft | 1 kts | 200° |
| 2026-04-14 09:43 | 50.05038 | 8.59119 | 360 ft | 2 kts | 184° |
| 2026-04-14 09:43 | 50.05027 | 8.59123 | 360 ft | 1 kts | 166° |
| 2026-04-14 09:43 | 50.05017 | 8.59129 | 365 ft | 1 kts | 158° |
| 2026-04-14 09:44 | 50.05002 | 8.59138 | 364 ft | 2 kts | 159° |
| 2026-04-14 09:44 | 50.04993 | 8.59143 | 363 ft | 1 kts | 160° |
| 2026-04-14 09:44 | 50.04987 | 8.59147 | 366 ft | 0 kts | 160° |
| 2026-04-14 09:44 | 50.04985 | 8.59148 | 365 ft | 0 kts | 160° |
| 2026-04-14 09:45 | 50.04982 | 8.59149 | 365 ft | 1 kts | 160° |
| 2026-04-14 09:45 | 50.04978 | 8.59152 | 364 ft | 1 kts | 159° |
| 2026-04-14 09:45 | 50.04977 | 8.59152 | 364 ft | 0 kts | 160° |